Terminal Aerodrome Forecast
Issued by NWS Portland, OR

Home | Current Version | Previous Version | Text Only | Print | Product List | Glossary On
Versions: 1 2 3 4 5 6 7 8 9 10 11 12 13 14 15 16 17 18 19 20 21 22 23 24 25 26 27 28 29 30 31
705
FTUS46 KPQR 051743
TAFSLE
TAF
KSLE 051743Z 0518/0618 32009KT P6SM BKN025 BKN050
     FM051900 32009KT P6SM SCT025 BKN040
     FM052100 01011KT P6SM SCT050 BKN120
     FM060400 35007KT P6SM SCT150=

USA.gov is the U.S. government's official web portal to all federal, state and local government web resources and services.